Time;durP1;ratioP1;P1;durP2;ratioP2;P2;SDS_P1;SDS_P2;PMS_P1;PMS_P2;Temp;Humidity;BMP_temperature;BMP_pressure;BME280_temperature;BME280_humidity;BME280_pressure;Samples;Min_cycle;Max_cycle;Signal;HPM_P1;HPM_P2
2024/01/21 00:00:06;;;;;;;2.93;2.47;;;;;;;-2.16;55.52;96521.06;5012895;28;20215;-75
2024/01/21 00:02:31;;;;;;;4.97;3.03;;;;;;;-2.27;55.50;96510.38;4994995;28;20533;-75
2024/01/21 00:04:56;;;;;;;24.03;11.17;;;;;;;-2.25;55.33;96515.41;5028156;28;20237;-75
2024/01/21 00:07:22;;;;;;;52.23;20.33;;;;;;;-2.26;55.15;96513.75;5015466;28;20185;-75
2024/01/21 00:09:47;;;;;;;40.33;16.43;;;;;;;-2.13;55.28;96508.22;5016355;28;20198;-75
2024/01/21 00:12:12;;;;;;;44.87;16.60;;;;;;;-2.22;54.55;96518.69;5026914;28;20187;-75
2024/01/21 00:14:38;;;;;;;20.40;8.43;;;;;;;-2.17;54.40;96508.38;5023245;28;20236;-75
2024/01/21 00:17:05;;;;;;;38.30;14.63;;;;;;;-2.18;54.48;96511.81;5012964;28;20179;-76
2024/01/21 00:19:30;;;;;;;31.60;13.20;;;;;;;-2.06;54.74;96514.78;5023874;28;20269;-76
2024/01/21 00:21:56;;;;;;;9.73;4.40;;;;;;;-2.23;54.36;96503.47;5029293;28;20483;-75
2024/01/21 00:24:21;;;;;;;13.30;6.27;;;;;;;-2.16;54.95;96502.41;5011675;28;20571;-75
2024/01/21 00:26:46;;;;;;;44.20;16.90;;;;;;;-2.09;54.90;96501.34;5012809;28;20681;-75
2024/01/21 00:29:12;;;;;;;8.03;4.60;;;;;;;-2.28;55.51;96501.09;5025885;28;20690;-75
2024/01/21 00:31:37;;;;;;;5.57;3.40;;;;;;;-2.17;56.00;96511.75;5012352;28;20183;-75
2024/01/21 00:34:02;;;;;;;5.80;2.70;;;;;;;-2.11;55.56;96501.41;5009666;28;20197;-75
2024/01/21 00:36:28;;;;;;;5.13;2.63;;;;;;;-2.12;55.37;96499.75;5012633;28;20218;-75
2024/01/21 00:38:53;;;;;;;3.50;2.57;;;;;;;-2.03;55.14;96509.63;5033448;28;20210;-75
2024/01/21 00:41:20;;;;;;;4.07;2.53;;;;;;;-2.06;55.07;96504.63;5012377;28;20191;-75
2024/01/21 00:43:45;;;;;;;5.53;3.00;;;;;;;-2.03;54.90;96494.34;5025723;28;20603;-75
2024/01/21 00:46:11;;;;;;;3.27;2.50;;;;;;;-2.14;54.84;96491.28;5008007;28;20225;-75
2024/01/21 00:48:36;;;;;;;4.37;2.43;;;;;;;-2.09;55.00;96486.91;5025414;28;20531;-75
2024/01/21 00:51:01;;;;;;;2.53;1.93;;;;;;;-2.14;55.14;96486.22;5013064;28;20217;-75
2024/01/21 00:53:27;;;;;;;3.57;2.40;;;;;;;-2.09;55.26;96489.44;5010131;28;20189;-77
2024/01/21 00:55:53;;;;;;;4.03;2.70;;;;;;;-2.09;55.36;96484.38;5010889;28;20229;-75
2024/01/21 00:58:18;;;;;;;3.53;2.17;;;;;;;-2.25;55.54;96487.44;5027633;28;20211;-75
2024/01/21 01:00:43;;;;;;;4.50;2.53;;;;;;;-2.11;55.37;96477.66;5008277;28;20212;-75
2024/01/21 01:03:08;;;;;;;3.37;2.47;;;;;;;-2.10;55.71;96475.06;5027275;28;20207;-75
2024/01/21 01:05:34;;;;;;;5.17;2.73;;;;;;;-2.18;56.16;96468.56;5010700;28;20224;-75
2024/01/21 01:07:59;;;;;;;8.77;4.67;;;;;;;-2.23;55.69;96468.69;5011815;28;20728;-75
2024/01/21 01:10:24;;;;;;;26.27;11.67;;;;;;;-2.06;55.34;96475.78;5009651;28;20216;-75
2024/01/21 01:12:50;;;;;;;10.27;6.37;;;;;;;-2.12;55.60;96469.19;5026900;28;20181;-75
2024/01/21 01:15:15;;;;;;;7.07;5.40;;;;;;;-2.18;55.50;96468.56;5008796;28;20184;-76
2024/01/21 01:17:41;;;;;;;7.10;4.10;;;;;;;-2.19;55.65;96464.34;5023729;28;20183;-76
2024/01/21 01:20:07;;;;;;;5.90;3.10;;;;;;;-2.30;55.80;96465.53;5011469;28;20289;-76
2024/01/21 01:22:32;;;;;;;5.57;3.20;;;;;;;-2.13;55.67;96461.59;5008269;28;20200;-76
2024/01/21 01:24:57;;;;;;;4.80;2.60;;;;;;;-2.24;55.32;96473.81;5010587;28;20206;-76
2024/01/21 01:27:24;;;;;;;3.77;2.30;;;;;;;-2.15;55.47;96464.19;5025583;28;20198;-75
2024/01/21 01:29:50;;;;;;;3.70;2.37;;;;;;;-2.12;54.98;96468.34;5010226;28;20582;-76
2024/01/21 01:32:15;;;;;;;3.63;2.23;;;;;;;-2.11;55.49;96462.41;5025188;28;20183;-76
2024/01/21 01:34:41;;;;;;;3.23;1.97;;;;;;;-2.18;55.71;96453.28;5008599;28;20191;-76
2024/01/21 01:37:08;;;;;;;4.47;2.57;;;;;;;-2.23;55.81;96450.03;5011617;28;20605;-76
2024/01/21 01:39:34;;;;;;;2.80;2.20;;;;;;;-2.19;55.69;96442.28;5007618;28;20211;-76
2024/01/21 01:41:59;;;;;;;3.57;2.00;;;;;;;-2.22;55.32;96439.81;5009870;28;20257;-76
2024/01/21 01:44:25;;;;;;;3.37;2.40;;;;;;;-2.15;55.48;96438.75;5024778;28;20200;-76
2024/01/21 01:46:50;;;;;;;7.20;2.87;;;;;;;-2.15;54.79;96438.75;5025289;28;20211;-76
2024/01/21 01:49:16;;;;;;;3.70;2.17;;;;;;;-2.30;55.29;96427.34;5025134;28;20203;-75
2024/01/21 01:51:41;;;;;;;3.97;2.33;;;;;;;-2.20;55.61;96434.69;5013297;28;20236;-76
2024/01/21 01:54:07;;;;;;;2.80;2.03;;;;;;;-2.07;54.53;96439.31;5007949;28;20184;-76
2024/01/21 01:56:33;;;;;;;2.87;1.90;;;;;;;-2.14;54.25;96434.47;5010091;28;20264;-75
2024/01/21 01:59:01;;;;;;;2.37;1.90;;;;;;;-2.23;54.20;96433.06;5010977;28;20303;-76
2024/01/21 02:01:28;;;;;;;2.10;1.60;;;;;;;-2.08;53.37;96431.75;5031707;28;20593;-76
2024/01/21 02:03:54;;;;;;;3.33;1.87;;;;;;;-2.00;53.70;96438.25;5025213;28;20180;-76
2024/01/21 02:06:20;;;;;;;2.10;1.70;;;;;;;-2.08;53.64;96435.13;4991283;28;20222;-75
2024/01/21 02:08:45;;;;;;;2.67;1.73;;;;;;;-2.08;53.54;96424.94;5012833;28;20185;-76
2024/01/21 02:11:10;;;;;;;3.13;2.27;;;;;;;-2.02;53.63;96418.81;5009036;28;20211;-75
2024/01/21 02:13:36;;;;;;;2.73;1.67;;;;;;;-2.03;53.06;96425.63;5010450;28;20686;-75
2024/01/21 02:16:02;;;;;;;2.10;1.80;;;;;;;-2.05;52.86;96419.75;5026127;28;20592;-75
2024/01/21 02:18:27;;;;;;;2.17;1.70;;;;;;;-1.91;53.57;96421.00;4993174;28;20748;-76
2024/01/21 02:20:52;;;;;;;2.77;1.87;;;;;;;-2.03;53.37;96414.63;5010999;28;20299;-76
2024/01/21 02:23:18;;;;;;;3.63;2.27;;;;;;;-1.94;53.35;96413.47;5024466;28;20196;-76
2024/01/21 02:25:43;;;;;;;2.93;1.77;;;;;;;-2.04;53.52;96406.13;5008701;28;20572;-76
2024/01/21 02:28:08;;;;;;;2.20;1.70;;;;;;;-1.97;52.49;96408.47;5008888;28;20712;-76
2024/01/21 02:30:40;;;;;;;2.37;1.93;;;;;;;-1.97;52.46;96404.22;5009613;28;20730;-76
2024/01/21 02:33:06;;;;;;;2.17;1.60;;;;;;;-1.83;52.40;96404.59;4991885;28;20184;-76
2024/01/21 02:35:32;;;;;;;3.43;1.67;;;;;;;-1.84;52.55;96399.56;5008588;28;20233;-75
2024/01/21 02:37:57;;;;;;;2.67;1.30;;;;;;;-1.89;52.91;96398.88;5010532;28;20219;-76
2024/01/21 02:40:23;;;;;;;1.83;1.50;;;;;;;-1.93;52.83;96404.97;5025435;28;20698;-76
2024/01/21 02:42:48;;;;;;;3.17;1.97;;;;;;;-1.91;52.83;96401.47;5024789;28;20261;-76
2024/01/21 02:45:13;;;;;;;1.93;1.67;;;;;;;-1.91;52.65;96405.75;5008715;28;20208;-76
2024/01/21 02:47:39;;;;;;;2.57;1.60;;;;;;;-1.93;53.03;96404.97;4993237;28;20218;-76
2024/01/21 02:50:05;;;;;;;3.77;1.50;;;;;;;-2.02;53.80;96409.47;5009508;28;20231;-76
2024/01/21 02:52:30;;;;;;;2.60;1.50;;;;;;;-2.03;53.23;96412.06;5007640;28;20564;-76
2024/01/21 02:54:55;;;;;;;1.47;1.30;;;;;;;-2.00;53.14;96412.78;5025466;28;20185;-76
2024/01/21 02:57:21;;;;;;;2.30;1.70;;;;;;;-2.00;53.18;96410.25;5028305;28;20225;-76
2024/01/21 02:59:46;;;;;;;1.60;1.50;;;;;;;-2.08;54.02;96409.66;5006481;28;20285;-76
2024/01/21 03:02:11;;;;;;;2.63;1.63;;;;;;;-2.07;54.27;96415.59;5008620;28;20195;-75
2024/01/21 03:04:37;;;;;;;3.60;1.50;;;;;;;-2.10;54.40;96414.00;5009656;28;20262;-76
2024/01/21 03:07:02;;;;;;;2.07;1.60;;;;;;;-2.17;54.84;96409.97;5009017;28;20194;-76
2024/01/21 03:09:27;;;;;;;2.43;1.40;;;;;;;-2.08;54.70;96409.66;5024822;28;20226;-75
2024/01/21 03:11:56;;;;;;;2.87;1.60;;;;;;;-2.09;54.88;96412.28;5009811;28;21066;-76
2024/01/21 03:14:21;;;;;;;2.07;1.50;;;;;;;-2.06;54.60;96407.06;5005756;28;20263;-76
2024/01/21 03:16:46;;;;;;;2.00;1.50;;;;;;;-2.12;54.82;96415.75;5010785;28;20238;-76
2024/01/21 03:19:12;;;;;;;2.17;1.47;;;;;;;-2.03;55.03;96412.06;5022309;28;20207;-76
2024/01/21 03:21:37;;;;;;;1.97;1.43;;;;;;;-2.07;55.82;96405.41;5008430;28;20189;-76
2024/01/21 03:24:02;;;;;;;2.53;1.70;;;;;;;-2.18;56.07;96398.13;5008975;28;20198;-76
2024/01/21 03:26:28;;;;;;;2.63;1.70;;;;;;;-2.21;56.43;96395.66;5009682;28;20246;-76
2024/01/21 03:28:53;;;;;;;2.43;1.63;;;;;;;-2.29;56.88;96395.94;5022925;28;20180;-76
2024/01/21 03:31:19;;;;;;;2.20;1.67;;;;;;;-2.44;57.77;96387.97;5025369;28;20187;-76
2024/01/21 03:33:45;;;;;;;1.83;1.57;;;;;;;-2.52;58.45;96380.56;5009905;28;20209;-76
2024/01/21 03:36:11;;;;;;;5.30;1.97;;;;;;;-2.51;57.65;96379.69;5008396;28;20184;-75
2024/01/21 03:38:36;;;;;;;3.50;1.63;;;;;;;-2.48;57.77;96379.56;5007936;28;20199;-76
2024/01/21 03:41:03;;;;;;;2.67;1.60;;;;;;;-2.46;56.97;96375.28;4992106;28;20205;-75
2024/01/21 03:43:28;;;;;;;2.23;1.73;;;;;;;-2.54;57.68;96384.03;5004730;28;20223;-76
2024/01/21 03:45:54;;;;;;;3.77;1.80;;;;;;;-2.51;57.70;96378.84;5010548;28;20243;-76
2024/01/21 03:48:19;;;;;;;3.60;1.90;;;;;;;-2.49;57.63;96377.09;4992199;28;20195;-76
2024/01/21 03:50:44;;;;;;;3.40;1.90;;;;;;;-2.48;58.05;96381.28;5009804;28;20292;-76
2024/01/21 03:53:10;;;;;;;3.70;1.80;;;;;;;-2.43;57.99;96377.72;5011647;28;20245;-75
2024/01/21 03:55:35;;;;;;;2.43;1.97;;;;;;;-2.49;57.94;96366.91;5011079;28;20228;-75
2024/01/21 03:58:01;;;;;;;3.00;2.20;;;;;;;-2.46;58.65;96362.56;5013227;28;20222;-76
2024/01/21 04:00:26;;;;;;;2.77;2.37;;;;;;;-2.49;59.00;96356.75;5012768;28;20289;-76
2024/01/21 04:02:51;;;;;;;2.80;2.00;;;;;;;-2.53;58.86;96361.09;5012918;28;20756;-76
2024/01/21 04:05:17;;;;;;;3.57;2.10;;;;;;;-2.57;59.28;96352.72;5028359;28;20211;-76
2024/01/21 04:07:42;;;;;;;4.70;2.30;;;;;;;-2.79;60.02;96351.75;5012912;28;20187;-76
2024/01/21 04:10:09;;;;;;;4.03;2.10;;;;;;;-2.64;59.80;96353.81;5010788;28;20295;-75
2024/01/21 04:12:35;;;;;;;3.23;2.10;;;;;;;-2.63;59.40;96349.56;5012416;28;20183;-76
2024/01/21 04:15:01;;;;;;;4.37;2.30;;;;;;;-2.71;60.05;96348.97;5011911;28;20190;-76
2024/01/21 04:17:27;;;;;;;5.10;2.53;;;;;;;-2.79;60.18;96345.84;5009686;28;20709;-76
2024/01/21 04:19:52;;;;;;;5.00;3.10;;;;;;;-2.90;60.87;96341.09;5027850;28;20208;-76
2024/01/21 04:22:18;;;;;;;3.93;2.80;;;;;;;-2.98;61.50;96337.94;5011588;28;20188;-76
2024/01/21 04:24:46;;;;;;;4.07;2.60;;;;;;;-3.02;61.56;96338.91;5014289;28;20183;-75
2024/01/21 04:27:11;;;;;;;4.53;2.60;;;;;;;-3.21;62.35;96339.44;5012448;28;20187;-75
2024/01/21 04:29:37;;;;;;;3.23;2.50;;;;;;;-3.13;61.36;96342.59;5011617;28;20250;-75
2024/01/21 04:32:02;;;;;;;3.93;2.43;;;;;;;-3.10;62.42;96351.00;5034894;28;20184;-75
2024/01/21 04:34:27;;;;;;;3.10;2.33;;;;;;;-3.17;62.90;96347.84;5042696;28;20191;-75
2024/01/21 04:36:53;;;;;;;3.27;2.20;;;;;;;-3.16;62.63;96355.41;5021641;28;20175;-75
2024/01/21 04:39:21;;;;;;;2.80;2.33;;;;;;;-3.17;62.62;96351.22;5025588;28;20650;-75
2024/01/21 04:41:47;;;;;;;3.03;2.37;;;;;;;-3.23;62.55;96355.63;5011219;28;20669;-75
2024/01/21 04:44:12;;;;;;;4.00;2.80;;;;;;;-3.22;62.22;96349.66;5012920;28;20184;-75
2024/01/21 04:46:37;;;;;;;3.97;2.43;;;;;;;-3.22;63.45;96363.19;5011404;28;20196;-75
2024/01/21 04:49:03;;;;;;;3.67;2.50;;;;;;;-3.39;63.69;96372.19;4997665;28;20659;-76
2024/01/21 04:51:28;;;;;;;4.33;2.80;;;;;;;-3.32;64.10;96366.06;5010081;28;20184;-75
2024/01/21 04:53:54;;;;;;;3.80;2.33;;;;;;;-3.33;64.09;96364.41;5011387;28;20179;-75
2024/01/21 04:56:19;;;;;;;4.93;2.93;;;;;;;-3.34;64.21;96365.28;5027279;28;20206;-75
2024/01/21 04:58:45;;;;;;;3.33;2.70;;;;;;;-3.38;64.67;96366.22;5011283;28;20708;-75
2024/01/21 05:01:11;;;;;;;4.03;2.57;;;;;;;-3.44;64.92;96362.16;4993596;28;20206;-75
2024/01/21 05:03:36;;;;;;;5.10;2.60;;;;;;;-3.44;65.01;96375.69;5011248;28;20236;-75
2024/01/21 05:06:03;;;;;;;5.30;3.10;;;;;;;-3.48;65.54;96378.34;5010964;28;20264;-75
2024/01/21 05:08:28;;;;;;;5.17;2.77;;;;;;;-3.62;66.84;96383.81;5022210;28;20187;-75
2024/01/21 05:10:54;;;;;;;3.60;2.80;;;;;;;-3.55;66.70;96392.06;5011180;28;20256;-75
2024/01/21 05:13:19;;;;;;;12.90;7.73;;;;;;;-3.62;66.89;96409.22;5025953;28;20258;-75
2024/01/21 05:15:45;;;;;;;8.93;4.53;;;;;;;-3.85;68.44;96409.78;5007558;28;20649;-75
2024/01/21 05:18:10;;;;;;;8.33;6.77;;;;;;;-3.78;67.96;96413.84;5010695;28;20191;-75
2024/01/21 05:20:36;;;;;;;6.63;5.60;;;;;;;-3.68;67.45;96416.16;5008112;28;20201;-75
2024/01/21 05:23:02;;;;;;;9.10;4.83;;;;;;;-3.64;67.38;96412.63;4991484;28;20184;-75
2024/01/21 05:25:27;;;;;;;4.83;3.43;;;;;;;-3.72;68.03;96413.66;5024657;28;20207;-76
2024/01/21 05:27:53;;;;;;;6.23;3.77;;;;;;;-3.69;68.18;96427.19;5025830;28;20184;-75
2024/01/21 05:30:18;;;;;;;4.80;3.50;;;;;;;-3.71;67.75;96419.56;5009405;28;20697;-75
2024/01/21 05:32:46;;;;;;;4.87;3.03;;;;;;;-3.76;68.55;96422.25;5010073;28;20265;-75
2024/01/21 05:35:15;;;;;;;5.20;3.53;;;;;;;-3.78;68.46;96430.78;5011128;28;20194;-75
2024/01/21 05:37:40;;;;;;;3.93;3.10;;;;;;;-3.77;67.87;96428.19;5011676;28;20209;-75
2024/01/21 05:40:06;;;;;;;7.03;3.70;;;;;;;-3.77;67.62;96428.19;4995909;28;20310;-75
2024/01/21 05:42:32;;;;;;;5.10;3.43;;;;;;;-3.81;68.10;96426.59;5008387;28;20183;-75
2024/01/21 05:44:57;;;;;;;4.87;3.53;;;;;;;-3.75;67.71;96420.53;5023288;28;20570;-75
2024/01/21 05:47:22;;;;;;;6.17;3.83;;;;;;;-3.79;67.35;96419.81;5026511;28;20238;-75
2024/01/21 05:49:48;;;;;;;5.77;3.47;;;;;;;-3.86;67.66;96422.53;5009401;28;20639;-75
2024/01/21 05:52:13;;;;;;;4.13;2.80;;;;;;;-3.93;68.84;96421.84;5011240;28;20185;-75
2024/01/21 05:54:39;;;;;;;4.67;3.30;;;;;;;-4.00;69.06;96420.34;5011607;28;20183;-75
2024/01/21 05:57:05;;;;;;;4.87;3.03;;;;;;;-4.05;69.40;96417.09;5010869;28;20179;-77
2024/01/21 05:59:30;;;;;;;5.93;3.70;;;;;;;-4.00;70.03;96411.00;5020874;28;20233;-75
2024/01/21 06:01:55;;;;;;;4.70;3.37;;;;;;;-4.09;69.23;96410.41;5009861;28;20194;-75
2024/01/21 06:04:21;;;;;;;6.17;3.50;;;;;;;-4.10;69.74;96411.28;5028347;28;20201;-75
2024/01/21 06:06:46;;;;;;;4.83;3.20;;;;;;;-4.21;69.82;96413.25;5009372;28;20195;-75
2024/01/21 06:09:12;;;;;;;4.83;3.07;;;;;;;-4.27;69.24;96420.13;5021112;28;20218;-75
2024/01/21 06:11:38;;;;;;;7.57;3.73;;;;;;;-4.36;70.18;96417.00;5009367;28;20201;-75
2024/01/21 06:14:04;;;;;;;4.30;3.23;;;;;;;-4.23;69.88;96413.31;5001938;28;20269;-74
2024/01/21 06:16:30;;;;;;;6.00;3.47;;;;;;;-4.07;69.16;96411.19;5007926;28;20278;-75
2024/01/21 06:18:55;;;;;;;5.07;3.57;;;;;;;-4.01;68.63;96414.44;5008874;28;20191;-75
2024/01/21 06:21:20;;;;;;;4.43;2.80;;;;;;;-4.05;68.66;96412.03;5025299;28;20188;-75
2024/01/21 06:23:46;;;;;;;6.13;3.47;;;;;;;-4.08;68.72;96409.53;5026174;28;20211;-75
2024/01/21 06:26:19;;;;;;;7.97;4.17;;;;;;;-4.04;68.25;96390.84;5031190;28;20191;-75
2024/01/21 06:28:51;;;;;;;6.53;4.00;;;;;;;-4.00;68.29;96397.50;5002737;28;20305;-75
2024/01/21 06:31:16;;;;;;;7.77;3.90;;;;;;;-4.05;68.35;96399.34;5008850;28;20183;-75
2024/01/21 06:33:42;;;;;;;6.93;3.20;;;;;;;-4.04;68.70;96395.94;5023348;28;20183;-75
2024/01/21 06:36:08;;;;;;;5.17;3.30;;;;;;;-3.94;68.28;96399.06;4995692;28;20280;-74
2024/01/21 06:38:33;;;;;;;4.27;3.37;;;;;;;-3.92;68.49;96397.31;5011778;28;20199;-74
2024/01/21 06:40:58;;;;;;;4.77;3.17;;;;;;;-3.93;68.64;96405.78;5008681;28;20214;-75
2024/01/21 06:43:24;;;;;;;5.27;3.53;;;;;;;-4.00;68.50;96411.00;5008724;28;20195;-75
2024/01/21 06:45:49;;;;;;;6.73;3.70;;;;;;;-4.07;69.12;96411.19;5008696;28;20512;-75
2024/01/21 06:48:15;;;;;;;3.97;3.57;;;;;;;-4.02;69.16;96411.94;5008744;28;20199;-75
2024/01/21 06:50:40;;;;;;;4.50;3.50;;;;;;;-3.93;69.11;96405.78;4991641;28;20856;-75
2024/01/21 06:53:05;;;;;;;4.63;3.40;;;;;;;-3.96;69.03;96409.25;5009001;28;20197;-75
2024/01/21 06:55:31;;;;;;;5.17;3.40;;;;;;;-3.89;68.67;96418.34;5012542;28;20232;-75
2024/01/21 06:57:56;;;;;;;6.53;3.43;;;;;;;-3.79;68.01;96411.34;4989257;28;20202;-75
2024/01/21 07:00:21;;;;;;;4.30;3.37;;;;;;;-3.84;68.30;96415.69;4988686;28;20283;-75
2024/01/21 07:02:47;;;;;;;5.37;3.53;;;;;;;-3.95;68.54;96427.84;5006272;28;20203;-75
2024/01/21 07:05:12;;;;;;;5.13;3.70;;;;;;;-4.00;69.07;96427.94;4991009;28;20289;-75
2024/01/21 07:07:37;;;;;;;4.00;3.20;;;;;;;-3.96;69.04;96438.88;5006090;28;20200;-75
2024/01/21 07:10:03;;;;;;;4.07;2.93;;;;;;;-3.83;68.42;96442.75;5005672;28;20215;-76
2024/01/21 07:12:28;;;;;;;4.07;3.17;;;;;;;-3.83;68.57;96438.50;5006050;28;20188;-75
2024/01/21 07:14:53;;;;;;;5.60;3.20;;;;;;;-3.93;68.74;96443.84;5005828;28;20862;-75
2024/01/21 07:17:19;;;;;;;3.73;3.13;;;;;;;-3.81;68.84;96444.38;4989591;28;20194;-75
2024/01/21 07:19:44;;;;;;;3.87;2.40;;;;;;;-3.64;68.16;96438.03;4987049;28;20796;-75
2024/01/21 07:22:10;;;;;;;4.70;2.90;;;;;;;-3.66;68.63;96430.44;4989003;28;20212;-75
2024/01/21 07:24:35;;;;;;;5.60;3.03;;;;;;;-3.55;68.18;96432.69;5006732;28;20732;-75
2024/01/21 07:27:01;;;;;;;4.60;2.90;;;;;;;-3.55;68.00;96431.00;4992283;28;20212;-75
2024/01/21 07:29:26;;;;;;;3.13;2.30;;;;;;;-3.42;67.54;96426.44;5008999;28;20222;-75
2024/01/21 07:31:52;;;;;;;4.47;2.50;;;;;;;-3.27;66.75;96418.41;4992033;28;20203;-75
2024/01/21 07:34:17;;;;;;;5.93;2.73;;;;;;;-3.09;66.23;96424.66;4987664;28;20223;-75
2024/01/21 07:36:43;;;;;;;2.97;2.73;;;;;;;-3.18;66.82;96425.75;4990305;28;20248;-78
2024/01/21 07:39:08;;;;;;;3.30;2.77;;;;;;;-2.97;66.07;96426.84;4974197;28;20196;-75
2024/01/21 07:41:33;;;;;;;3.57;2.77;;;;;;;-3.10;67.13;96437.38;4988540;28;20297;-75
2024/01/21 07:43:59;;;;;;;3.90;2.83;;;;;;;-2.91;67.50;96433.47;4987891;28;20193;-76
2024/01/21 07:46:24;;;;;;;4.77;3.23;;;;;;;-2.77;66.85;96443.22;5005898;28;20288;-76
2024/01/21 07:48:50;;;;;;;3.30;2.60;;;;;;;-2.88;67.04;96443.53;4991414;28;20573;-76
2024/01/21 07:51:19;;;;;;;7.47;2.97;;;;;;;-2.66;66.64;96434.38;4988958;28;20274;-75
2024/01/21 07:53:44;;;;;;;4.30;2.57;;;;;;;-2.59;66.98;96458.75;4990642;28;20181;-76
2024/01/21 07:56:10;;;;;;;4.97;3.13;;;;;;;-2.54;66.75;96440.00;4975527;28;20196;-76
2024/01/21 07:58:36;;;;;;;4.43;3.00;;;;;;;-2.46;66.98;96443.97;4989122;28;20201;-76
2024/01/21 08:01:01;;;;;;;5.20;2.60;;;;;;;-2.50;67.53;96447.47;4975314;28;20290;-76
2024/01/21 08:03:26;;;;;;;3.60;2.43;;;;;;;-2.18;67.19;96445.66;4991687;28;20673;-76
2024/01/21 08:05:53;;;;;;;5.13;2.50;;;;;;;-2.29;67.39;96449.38;5005144;28;20200;-76
2024/01/21 08:08:18;;;;;;;4.37;2.80;;;;;;;-2.01;67.21;96451.88;4989784;28;20184;-76
2024/01/21 08:10:44;;;;;;;4.33;2.33;;;;;;;-1.69;66.27;96451.66;4989098;28;20215;-76
2024/01/21 08:13:09;;;;;;;3.57;2.60;;;;;;;-1.72;66.11;96455.16;4991542;28;20203;-76
2024/01/21 08:15:34;;;;;;;4.83;2.50;;;;;;;-1.62;65.87;96446.31;4987523;28;20193;-76
2024/01/21 08:18:00;;;;;;;4.47;2.63;;;;;;;-1.51;65.80;96449.31;4991848;28;20185;-77
2024/01/21 08:20:25;;;;;;;3.70;2.63;;;;;;;-1.74;66.64;96451.84;4990413;28;20212;-78
2024/01/21 08:22:50;;;;;;;4.13;2.90;;;;;;;-1.79;66.19;96463.88;4988592;28;20276;-77
2024/01/21 08:25:16;;;;;;;3.57;2.63;;;;;;;-1.47;66.37;96455.16;4988771;28;20297;-77
2024/01/21 08:27:42;;;;;;;3.07;2.50;;;;;;;-1.23;65.48;96456.03;4988510;28;20184;-76
2024/01/21 08:30:08;;;;;;;4.90;2.70;;;;;;;-1.32;65.48;96447.00;5006007;28;20208;-75
2024/01/21 08:32:34;;;;;;;5.50;3.30;;;;;;;-1.12;65.10;96448.00;5003619;28;20192;-76
2024/01/21 08:34:59;;;;;;;3.43;2.90;;;;;;;-1.00;65.13;96447.56;4987845;28;20212;-76
2024/01/21 08:37:25;;;;;;;5.63;3.23;;;;;;;-0.99;64.68;96450.03;5004772;28;20191;-76
2024/01/21 08:39:50;;;;;;;5.17;3.00;;;;;;;-0.86;65.02;96453.00;5005481;28;20246;-76
2024/01/21 08:42:15;;;;;;;4.30;2.47;;;;;;;-0.98;65.14;96464.44;4991002;28;20265;-76
2024/01/21 08:44:41;;;;;;;6.47;3.30;;;;;;;-1.02;65.57;96462.09;4988279;28;20180;-76
2024/01/21 08:47:06;;;;;;;5.70;2.40;;;;;;;-0.97;65.29;96455.09;4988315;28;20740;-76
2024/01/21 08:49:31;;;;;;;5.23;3.07;;;;;;;-1.12;66.31;96458.22;4986692;28;20211;-76
2024/01/21 08:51:57;;;;;;;3.77;2.80;;;;;;;-0.82;64.96;96464.72;4988223;28;20227;-76
2024/01/21 08:54:23;;;;;;;3.37;2.97;;;;;;;-1.04;66.23;96474.06;4987014;28;20203;-76
2024/01/21 08:56:48;;;;;;;5.67;3.50;;;;;;;-1.27;66.80;96485.06;4992708;28;20689;-76
2024/01/21 08:59:13;;;;;;;6.63;3.67;;;;;;;-1.31;67.26;96479.25;4986330;28;20274;-76
2024/01/21 09:01:39;;;;;;;5.50;3.13;;;;;;;-0.87;66.23;96489.59;4990314;28;20250;-76
2024/01/21 09:04:04;;;;;;;5.43;2.80;;;;;;;-0.63;65.54;96464.88;4992770;28;20206;-76
2024/01/21 09:06:30;;;;;;;5.50;3.90;;;;;;;-0.63;66.08;96467.44;5006185;28;20233;-76
2024/01/21 09:08:56;;;;;;;4.13;3.40;;;;;;;-0.59;65.99;96469.81;4989530;28;20277;-76
2024/01/21 09:11:23;;;;;;;4.73;3.30;;;;;;;-0.35;64.92;96462.97;5009174;28;20291;-76
2024/01/21 09:13:48;;;;;;;4.63;3.57;;;;;;;-0.38;64.69;96459.69;5010663;28;20201;-76
2024/01/21 09:16:19;;;;;;;6.10;4.00;;;;;;;-0.18;64.37;96469.09;4989229;28;20179;-76
2024/01/21 09:18:45;;;;;;;4.00;3.00;;;;;;;-0.14;65.07;96470.66;5005896;28;20201;-76
2024/01/21 09:21:10;;;;;;;6.20;2.93;;;;;;;0.03;64.24;96467.44;4992943;28;20209;-76
2024/01/21 09:23:35;;;;;;;4.60;3.10;;;;;;;-0.03;64.74;96464.25;4990424;28;20198;-76
2024/01/21 09:26:00;;;;;;;4.40;2.70;;;;;;;0.36;63.53;96468.66;4993805;28;20269;-76
2024/01/21 09:28:26;;;;;;;4.73;2.63;;;;;;;0.40;63.47;96482.94;5009793;28;20304;-76
2024/01/21 09:30:51;;;;;;;4.93;2.40;;;;;;;0.40;63.67;96480.38;4987938;28;20215;-76
2024/01/21 09:33:19;;;;;;;4.90;3.30;;;;;;;0.69;62.84;96479.16;5006989;28;20683;-76
2024/01/21 09:35:44;;;;;;;4.90;2.57;;;;;;;1.00;62.32;96477.88;5006122;28;20186;-76
2024/01/21 09:38:13;;;;;;;4.23;2.60;;;;;;;1.13;61.47;96489.22;4976382;28;20287;-76
2024/01/21 09:40:39;;;;;;;4.90;2.13;;;;;;;1.16;61.60;96489.09;5001956;28;20334;-76
2024/01/21 09:43:04;;;;;;;4.67;3.03;;;;;;;1.44;61.10;96492.97;4988220;28;20679;-76
2024/01/21 09:45:31;;;;;;;3.43;2.90;;;;;;;1.54;60.80;96489.09;4972659;28;20826;-76
2024/01/21 09:47:57;;;;;;;4.73;3.53;;;;;;;1.63;61.32;96504.88;5003624;28;20681;-76
2024/01/21 09:50:24;;;;;;;4.13;2.67;;;;;;;1.63;60.92;96514.28;4973221;28;20246;-76
2024/01/21 09:52:49;;;;;;;4.97;2.70;;;;;;;1.62;61.15;96513.44;5000072;28;20190;-75
2024/01/21 09:55:14;;;;;;;5.07;3.00;;;;;;;1.69;60.18;96512.28;5003381;28;20179;-76
2024/01/21 09:57:40;;;;;;;11.50;4.50;;;;;;;1.80;60.70;96509.22;4988720;28;20203;-75
2024/01/21 10:00:06;;;;;;;5.43;2.80;;;;;;;1.63;60.85;96509.16;4984444;28;20604;-75
2024/01/21 10:02:32;;;;;;;8.40;2.93;;;;;;;1.78;60.13;96494.84;4983276;28;20810;-75
2024/01/21 10:04:58;;;;;;;3.63;2.63;;;;;;;1.65;61.44;96476.63;4982696;28;20219;-75
2024/01/21 10:07:24;;;;;;;6.37;3.37;;;;;;;1.65;61.38;96476.63;5007843;28;20241;-75
2024/01/21 10:09:57;;;;;;;3.63;2.90;;;;;;;1.64;61.00;96480.09;4997756;28;20223;-75
2024/01/21 10:12:24;;;;;;;4.33;3.00;;;;;;;1.66;60.76;96483.41;4982813;28;20784;-75
2024/01/21 10:14:49;;;;;;;4.23;3.27;;;;;;;1.55;61.22;96488.19;4989689;28;20708;-75
2024/01/21 10:17:15;;;;;;;4.53;3.40;;;;;;;1.86;60.81;96490.19;5002525;28;20211;-76
2024/01/21 10:19:40;;;;;;;4.07;3.60;;;;;;;1.79;61.16;96493.94;5002280;28;20218;-76
2024/01/21 10:22:10;;;;;;;4.77;3.70;;;;;;;1.91;61.02;96496.75;5009075;28;20183;-77
2024/01/21 10:24:43;;;;;;;5.33;3.60;;;;;;;1.83;61.39;96503.94;4981292;28;20844;-76
2024/01/21 10:27:09;;;;;;;5.53;4.10;;;;;;;1.85;61.88;96503.88;4986091;28;20199;-76
2024/01/21 10:29:36;;;;;;;5.37;4.83;;;;;;;1.80;60.92;96505.84;4989847;28;20712;-76
2024/01/21 10:32:02;;;;;;;7.07;5.60;;;;;;;1.82;61.02;96522.78;5009670;28;20195;-76
2024/01/21 10:34:27;;;;;;;6.83;4.97;;;;;;;1.72;61.19;96526.66;5003751;28;20186;-76
2024/01/21 10:36:53;;;;;;;5.87;3.87;;;;;;;1.37;61.68;96523.13;5002752;28;20180;-76
2024/01/21 10:39:20;;;;;;;6.70;3.90;;;;;;;1.66;61.16;96514.13;5004921;28;20222;-75
2024/01/21 10:41:45;;;;;;;4.50;3.53;;;;;;;1.72;61.09;96503.63;5006706;28;20206;-76
2024/01/21 10:44:11;;;;;;;7.03;4.03;;;;;;;1.79;60.77;96501.63;5006166;28;20573;-75
2024/01/21 10:46:37;;;;;;;5.60;3.60;;;;;;;2.08;60.14;96490.81;5005936;28;20659;-76
2024/01/21 10:49:03;;;;;;;8.37;4.60;;;;;;;2.07;60.72;96494.28;4991893;28;20179;-76
2024/01/21 10:51:29;;;;;;;5.93;4.40;;;;;;;2.35;60.14;96510.91;4991415;28;20553;-76
2024/01/21 10:53:56;;;;;;;5.47;3.67;;;;;;;2.32;60.26;96529.84;4990883;28;20188;-76
2024/01/21 10:56:23;;;;;;;8.33;5.47;;;;;;;2.08;60.53;96562.56;4974992;28;20179;-76
2024/01/21 10:58:49;;;;;;;6.63;3.80;;;;;;;2.01;60.10;96568.03;4972924;28;20375;-75
2024/01/21 11:01:15;;;;;;;5.07;3.30;;;;;;;2.49;59.63;96552.09;4986207;28;20199;-76
2024/01/21 11:03:42;;;;;;;12.40;5.60;;;;;;;2.59;59.43;96567.88;4986057;28;20233;-76
2024/01/21 11:06:08;;;;;;;7.60;4.83;;;;;;;2.48;60.19;96576.09;5006142;28;20210;-76
2024/01/21 11:08:35;;;;;;;10.40;4.53;;;;;;;2.58;59.89;96584.16;4989957;28;20661;-76
2024/01/21 11:11:13;;;;;;;16.10;8.53;;;;;;;2.68;59.54;96608.47;4983976;28;20249;-75
2024/01/21 11:13:46;;;;;;;23.10;12.00;;;;;;;2.81;59.78;96633.44;5006413;28;20190;-75
2024/01/21 11:16:11;;;;;;;23.27;17.23;;;;;;;2.83;59.62;96618.81;4970487;28;20733;-75
2024/01/21 11:18:37;;;;;;;16.47;11.60;;;;;;;2.82;60.24;96619.69;4989676;28;20266;-75
2024/01/21 11:21:02;;;;;;;7.47;5.90;;;;;;;2.76;59.38;96620.00;4984833;28;20206;-75
2024/01/21 11:23:28;;;;;;;5.13;4.33;;;;;;;2.70;58.44;96609.22;5005528;28;20665;-75
2024/01/21 11:25:54;;;;;;;6.17;4.53;;;;;;;2.79;58.42;96594.19;4999379;28;20200;-75